Time;durP1;ratioP1;P1;durP2;ratioP2;P2;SDS_P1;SDS_P2;PMS_P1;PMS_P2;Temp;Humidity;BMP_temperature;BMP_pressure;BME280_temperature;BME280_humidity;BME280_pressure;Samples;Min_cycle;Max_cycle;Signal;HPM_P1;HPM_P2
2022/06/16 00:05:53;;;;;;;;;;;;;;;;;;12634037;28;19916;-78
2022/06/16 00:11:54;;;;;;;;;;;;;;;;;;12650828;28;20360;-79
2022/06/16 00:17:56;;;;;;;;;;;;;;;;;;12632247;28;20285;-78
2022/06/16 00:30:50;;;;;;;;;;;;;;;;;;12653167;28;19934;-78
2022/06/16 00:36:52;;;;;;;;;;;;;;;;;;12655073;28;19935;-77
2022/06/16 00:42:53;;;;;;;;;;;;;;;;;;12631176;28;20135;-77
2022/06/16 00:48:55;;;;;;;;;;;;;;;;;;12630676;28;19919;-78
2022/06/16 00:54:57;;;;;;;;;;;;;;;;;;12648283;28;19928;-78
2022/06/16 01:00:58;;;;;;;;;;;;;;;;;;12647127;28;19919;-77
2022/06/16 01:07:00;;;;;;;;;;;;;;;;;;12646663;28;19923;-78
2022/06/16 01:19:22;;;;;;;;;;;;;;;;;;12629296;28;20522;-78
2022/06/16 01:25:23;;;;;;;;;;;;;;;;;;12629069;28;20296;-78
2022/06/16 01:31:25;;;;;;;;;;;;;;;;;;12628771;28;19920;-78
2022/06/16 01:37:27;;;;;;;;;;;;;;;;;;12628232;28;20377;-78
2022/06/16 01:43:28;;;;;;;;;;;;;;;;;;12628104;28;19912;-78
2022/06/16 01:49:30;;;;;;;;;;;;;;;;;;12645806;28;20380;-79
2022/06/16 01:55:32;;;;;;;;;;;;;;;;;;12644719;28;19932;-78
2022/06/16 02:01:33;;;;;;;;;;;;;;;;;;12643962;28;19912;-78
2022/06/16 02:07:35;;;;;;;;;;;;;;;;;;12627866;28;19923;-78
2022/06/16 02:13:42;;;;;;;;;;;;;;;;;;12644845;28;20296;-78
2022/06/16 02:19:43;;;;;;;;;;;;;;;;;;12625482;28;19919;-77
2022/06/16 02:25:45;;;;;;;;;;;;;;;;;;12626193;28;19920;-77
2022/06/16 02:31:47;;;;;;;;;;;;;;;;;;12627766;28;19916;-77
2022/06/16 02:37:49;;;;;;;;;;;;;;;;;;12626640;28;19931;-78
2022/06/16 02:43:50;;;;;;;;;;;;;;;;;;12643353;28;19923;-77
2022/06/16 02:49:52;;;;;;;;;;;;;;;;;;12641947;28;20343;-78
2022/06/16 02:55:53;;;;;;;;;;;;;;;;;;12624836;28;19927;-78
2022/06/16 03:01:55;;;;;;;;;;;;;;;;;;12641363;28;19912;-77
2022/06/16 03:07:56;;;;;;;;;;;;;;;;;;12641919;28;19939;-77
2022/06/16 03:13:59;;;;;;;;;;;;;;;;;;12640522;28;19920;-78
2022/06/16 03:20:06;;;;;;;;;;;;;;;;;;12624052;28;19919;-77
2022/06/16 03:26:08;;;;;;;;;;;;;;;;;;12641893;28;20038;-77
2022/06/16 03:32:10;;;;;;;;;;;;;;;;;;12623309;28;19919;-78
2022/06/16 03:38:57;;;;;;;;;;;;;;;;;;12640384;28;19962;-78
2022/06/16 03:44:34;;;;;;;;;;;;;;;;;;12613144;28;19912;-78
2022/06/16 03:50:35;;;;;;;;;;;;;;;;;;12623059;28;19919;-78
2022/06/16 03:56:40;;;;;;;;;;;;;;;;;;12640129;28;19920;-77
2022/06/16 04:02:45;;;;;;;;;;;;;;;;;;12622743;28;19923;-78
2022/06/16 04:08:48;;;;;;;;;;;;;;;;;;12639368;28;20548;-78
2022/06/16 04:14:49;;;;;;;;;;;;;;;;;;12639228;28;19927;-78
2022/06/16 04:20:52;;;;;;;;;;;;;;;;;;12622463;28;19912;-77
2022/06/16 04:27:03;;;;;;;;;;;;;;;;;;12640184;28;20365;-77
2022/06/16 04:33:04;;;;;;;;;;;;;;;;;;12622373;28;19924;-78
2022/06/16 04:39:07;;;;;;;;;;;;;;;;;;12622032;28;19924;-78
2022/06/16 04:45:10;;;;;;;;;;;;;;;;;;12646110;28;19920;-78
2022/06/16 04:51:12;;;;;;;;;;;;;;;;;;12630413;28;19919;-78
2022/06/16 04:57:18;;;;;;;;;;;;;;;;;;12630374;28;19920;-78
2022/06/16 05:03:46;;;;;;;;;;;;;;;;;;12629871;28;19923;-78
2022/06/16 05:09:59;;;;;;;;;;;;;;;;;;12646676;28;20408;-79
2022/06/16 05:16:22;;;;;;;;;;;;;;;;;;12629097;28;20373;-78
2022/06/16 05:22:44;;;;;;;;;;;;;;;;;;12647020;28;19912;-79
2022/06/16 05:28:46;;;;;;;;;;;;;;;;;;12628885;28;19912;-77
2022/06/16 05:35:11;;;;;;;;;;;;;;;;;;12643296;28;19924;-78
2022/06/16 05:41:33;;;;;;;;;;;;;;;;;;12614098;28;19923;-78
2022/06/16 05:47:44;;;;;;;;;;;;;;;;;;12645912;28;19919;-78
2022/06/16 05:53:45;;;;;;;;;;;;;;;;;;12630596;28;19915;-79
2022/06/16 05:59:49;;;;;;;;;;;;;;;;;;12674193;28;19911;-78
2022/06/16 06:05:51;;;;;;;;;;;;;;;;;;12669759;28;19919;-79
2022/06/16 06:18:33;;;;;;;;;;;;;;;;;;12471856;28;19929;-80
2022/06/16 06:24:35;;;;;;;;;;;;;;;;;;12656772;28;19919;-80
2022/06/16 06:30:42;;;;;;;;;;;;;;;;;;12651706;28;19919;-80
2022/06/16 06:36:43;;;;;;;;;;;;;;;;;;12622663;28;19924;-79
2022/06/16 06:42:45;;;;;;;;;;;;;;;;;;12642061;28;19912;-78
2022/06/16 06:48:47;;;;;;;;;;;;;;;;;;12664126;28;19920;-78
2022/06/16 06:54:48;;;;;;;;;;;;;;;;;;12659844;28;19927;-78
2022/06/16 07:00:51;;;;;;;;;;;;;;;;;;12689746;28;19920;-79
2022/06/16 07:06:52;;;;;;;;;;;;;;;;;;12678354;28;19916;-79
2022/06/16 07:12:54;;;;;;;;;;;;;;;;;;12681826;28;20297;-79
2022/06/16 07:18:55;;;;;;;;;;;;;;;;;;12652461;28;19919;-79
2022/06/16 07:24:57;;;;;;;;;;;;;;;;;;12662511;28;19916;-80
2022/06/16 07:30:58;;;;;;;;;;;;;;;;;;12656146;28;19911;-79
2022/06/16 07:37:00;;;;;;;;;;;;;;;;;;12656630;28;19923;-79
2022/06/16 07:43:01;;;;;;;;;;;;;;;;;;12656731;28;20360;-77
2022/06/16 07:49:03;;;;;;;;;;;;;;;;;;12655737;28;19912;-77
2022/06/16 07:55:04;;;;;;;;;;;;;;;;;;12662390;28;19920;-78
2022/06/16 08:01:07;;;;;;;;;;;;;;;;;;12687602;28;20406;-79
2022/06/16 08:07:09;;;;;;;;;;;;;;;;;;12669808;28;20138;-79
2022/06/16 08:13:10;;;;;;;;;;;;;;;;;;12676121;28;19912;-79
2022/06/16 08:19:12;;;;;;;;;;;;;;;;;;12667992;28;19927;-78
2022/06/16 08:25:15;;;;;;;;;;;;;;;;;;12690608;28;19919;-79
2022/06/16 08:31:20;;;;;;;;;;;;;;;;;;12672860;28;19912;-78
2022/06/16 08:37:22;;;;;;;;;;;;;;;;;;12651318;28;20248;-81
2022/06/16 08:43:23;;;;;;;;;;;;;;;;;;12687304;28;19958;-80
2022/06/16 08:49:24;;;;;;;;;;;;;;;;;;12688353;27;19923;-80
2022/06/16 08:55:26;;;;;;;;;;;;;;;;;;12684196;28;20320;-80
2022/06/16 09:01:28;;;;;;;;;;;;;;;;;;12651979;28;20265;-80
2022/06/16 09:07:29;;;;;;;;;;;;;;;;;;12689402;28;19916;-82
2022/06/16 09:13:31;;;;;;;;;;;;;;;;;;12644625;28;19920;-81
2022/06/16 09:19:32;;;;;;;;;;;;;;;;;;12675677;28;20304;-80
2022/06/16 09:25:34;;;;;;;;;;;;;;;;;;12681185;28;19919;-79
2022/06/16 09:31:35;;;;;;;;;;;;;;;;;;12693205;28;19935;-79
2022/06/16 09:37:37;;;;;;;;;;;;;;;;;;12675791;28;20275;-79
2022/06/16 09:43:38;;;;;;;;;;;;;;;;;;12695292;28;19912;-80
2022/06/16 09:49:40;;;;;;;;;;;;;;;;;;12689765;28;19916;-80
2022/06/16 09:55:42;;;;;;;;;;;;;;;;;;12674262;28;19935;-80
2022/06/16 10:01:43;;;;;;;;;;;;;;;;;;12694402;28;19912;-81
2022/06/16 10:07:45;;;;;;;;;;;;;;;;;;12697125;28;19915;-80
2022/06/16 10:13:46;;;;;;;;;;;;;;;;;;12696197;28;19919;-80
2022/06/16 10:19:48;;;;;;;;;;;;;;;;;;12694726;28;19921;-80
2022/06/16 10:25:49;;;;;;;;;;;;;;;;;;12695626;28;19911;-79
2022/06/16 10:31:51;;;;;;;;;;;;;;;;;;12692355;28;19919;-80
2022/06/16 10:37:52;;;;;;;;;;;;;;;;;;12735920;27;19924;-80
2022/06/16 10:43:54;;;;;;;;;;;;;;;;;;12661930;27;19919;-80
2022/06/16 10:49:55;;;;;;;;;;;;;;;;;;12677759;27;19918;-80
2022/06/16 10:55:57;;;;;;;;;;;;;;;;;;12693434;28;19927;-80
2022/06/16 11:01:58;;;;;;;;;;;;;;;;;;12688351;28;20384;-80
2022/06/16 11:08:00;;;;;;;;;;;;;;;;;;12670025;27;19916;-81
2022/06/16 11:14:01;;;;;;;;;;;;;;;;;;12745541;27;20364;-83
2022/06/16 11:20:03;;;;;;;;;;;;;;;;;;12745401;27;19911;-82
2022/06/16 11:26:04;;;;;;;;;;;;;;;;;;12712951;27;19911;-80
2022/06/16 11:32:06;;;;;;;;;;;;;;;;;;12688342;27;19927;-81
2022/06/16 11:38:07;;;;;;;;;;;;;;;;;;12701706;27;19931;-81
2022/06/16 11:44:09;;;;;;;;;;;;;;;;;;12737833;28;20253;-80
2022/06/16 11:50:11;;;;;;;;;;;;;;;;;;12719208;27;19919;-80
2022/06/16 11:56:12;;;;;;;;;;;;;;;;;;12717385;27;19920;-80
2022/06/16 12:02:14;;;;;;;;;;;;;;;;;;12731393;27;19911;-81
2022/06/16 12:08:15;;;;;;;;;;;;;;;;;;12749479;27;20280;-81
2022/06/16 12:14:17;;;;;;;;;;;;;;;;;;12733427;27;19993;-80
2022/06/16 12:20:18;;;;;;;;;;;;;;;;;;12734794;27;19912;-81
2022/06/16 12:26:20;;;;;;;;;;;;;;;;;;12754188;27;19919;-80
2022/06/16 12:32:21;;;;;;;;;;;;;;;;;;12735241;27;19922;-81
2022/06/16 12:38:23;;;;;;;;;;;;;;;;;;12752999;27;20410;-80
2022/06/16 12:44:25;;;;;;;;;;;;;;;;;;12752297;27;19912;-79
2022/06/16 12:50:26;;;;;;;;;;;;;;;;;;12717208;27;20473;-80
2022/06/16 12:56:27;;;;;;;;;;;;;;;;;;12765644;27;19946;-79
2022/06/16 13:02:29;;;;;;;;;;;;;;;;;;12736703;27;19911;-80
2022/06/16 13:08:31;;;;;;;;;;;;;;;;;;12732403;27;19912;-80
2022/06/16 13:14:32;;;;;;;;;;;;;;;;;;12732343;27;19930;-80
2022/06/16 13:20:34;;;;;;;;;;;;;;;;;;12731698;27;19912;-80
2022/06/16 13:26:35;;;;;;;;;;;;;;;;;;12749475;27;20275;-80
2022/06/16 13:32:37;;;;;;;;;;;;;;;;;;12749219;27;19958;-80
2022/06/16 13:38:38;;;;;;;;;;;;;;;;;;12749517;27;19930;-80
2022/06/16 13:44:40;;;;;;;;;;;;;;;;;;12748710;27;19911;-79
2022/06/16 13:50:41;;;;;;;;;;;;;;;;;;12748475;27;19912;-79
2022/06/16 13:56:43;;;;;;;;;;;;;;;;;;12748600;27;19926;-80
2022/06/16 14:02:44;;;;;;;;;;;;;;;;;;12749355;27;19985;-80
2022/06/16 14:08:45;;;;;;;;;;;;;;;;;;12767215;27;19918;-78
2022/06/16 14:14:47;;;;;;;;;;;;;;;;;;12729997;27;20295;-80
2022/06/16 14:20:49;;;;;;;;;;;;;;;;;;12747020;27;20386;-79
2022/06/16 14:26:51;;;;;;;;;;;;;;;;;;12746748;27;19926;-79
2022/06/16 14:32:53;;;;;;;;;;;;;;;;;;12745856;27;19933;-80
2022/06/16 14:38:54;;;;;;;;;;;;;;;;;;12745196;27;20381;-80
2022/06/16 14:44:55;;;;;;;;;;;;;;;;;;12745021;27;19918;-80
2022/06/16 14:50:57;;;;;;;;;;;;;;;;;;12726735;27;19911;-80
2022/06/16 14:56:58;;;;;;;;;;;;;;;;;;12744026;27;19919;-79
2022/06/16 15:03:01;;;;;;;;;;;;;;;;;;12744356;27;19915;-80
2022/06/16 15:09:02;;;;;;;;;;;;;;;;;;12744218;27;19912;-79
2022/06/16 15:15:04;;;;;;;;;;;;;;;;;;12709150;27;19926;-80
2022/06/16 15:21:06;;;;;;;;;;;;;;;;;;12725899;27;19912;-80
2022/06/16 15:27:08;;;;;;;;;;;;;;;;;;12726355;27;20381;-81
2022/06/16 15:39:32;;;;;;;;;;;;;;;;;;12744141;27;21435;-83
2022/06/16 15:45:33;;;;;;;;;;;;;;;;;;12726769;28;19919;-82
2022/06/16 15:51:35;;;;;;;;;;;;;;;;;;12711988;28;20379;-81
2022/06/16 15:57:36;;;;;;;;;;;;;;;;;;12710889;28;19919;-82
2022/06/16 16:03:37;;;;;;;;;;;;;;;;;;12744306;28;19915;-82
2022/06/16 16:09:39;;;;;;;;;;;;;;;;;;12744094;28;19943;-82
2022/06/16 16:15:40;;;;;;;;;;;;;;;;;;12725778;28;19919;-81
2022/06/16 16:21:44;;;;;;;;;;;;;;;;;;12725424;28;19930;-82
2022/06/16 16:27:46;;;;;;;;;;;;;;;;;;12707640;28;19912;-81
2022/06/16 16:33:48;;;;;;;;;;;;;;;;;;12724422;27;20276;-82
2022/06/16 16:39:49;;;;;;;;;;;;;;;;;;12730045;27;19934;-82
2022/06/16 16:45:52;;;;;;;;;;;;;;;;;;12735347;27;19918;-82
2022/06/16 16:51:54;;;;;;;;;;;;;;;;;;12753082;27;19911;-83
2022/06/16 16:57:55;;;;;;;;;;;;;;;;;;12736519;27;19927;-82
2022/06/16 17:03:57;;;;;;;;;;;;;;;;;;12754543;27;20279;-82
2022/06/16 17:09:58;;;;;;;;;;;;;;;;;;12754419;27;19915;-82
2022/06/16 17:15:59;;;;;;;;;;;;;;;;;;12754232;27;19935;-82
2022/06/16 17:22:01;;;;;;;;;;;;;;;;;;12736633;27;19911;-82
2022/06/16 17:28:03;;;;;;;;;;;;;;;;;;12735225;27;20336;-83
2022/06/16 17:34:04;;;;;;;;;;;;;;;;;;12753425;27;19927;-83
2022/06/16 17:40:06;;;;;;;;;;;;;;;;;;12736091;27;19924;-82
2022/06/16 17:46:08;;;;;;;;;;;;;;;;;;12759836;27;19915;-83
2022/06/16 18:04:40;;;;;;;;;;;;;;;;;;12732833;27;19912;-83
2022/06/16 18:10:42;;;;;;;;;;;;;;;;;;12732072;27;19919;-82
2022/06/16 18:16:44;;;;;;;;;;;;;;;;;;12731971;27;19919;-81
2022/06/16 18:22:46;;;;;;;;;;;;;;;;;;12749836;27;19912;-82
2022/06/16 18:28:47;;;;;;;;;;;;;;;;;;12749453;27;19912;-82
2022/06/16 18:34:49;;;;;;;;;;;;;;;;;;12749524;27;19923;-83
2022/06/16 18:40:50;;;;;;;;;;;;;;;;;;12775425;27;19915;-82
2022/06/16 18:47:02;;;;;;;;;;;;;;;;;;12759944;27;19935;-83
2022/06/16 18:53:03;;;;;;;;;;;;;;;;;;12730248;27;19919;-83
2022/06/16 18:59:05;;;;;;;;;;;;;;;;;;12729685;27;19919;-81
2022/06/16 19:05:06;;;;;;;;;;;;;;;;;;12749108;27;19915;-83
2022/06/16 19:11:08;;;;;;;;;;;;;;;;;;12748630;27;19923;-82
2022/06/16 19:17:09;;;;;;;;;;;;;;;;;;12748045;27;19920;-82
2022/06/16 19:23:11;;;;;;;;;;;;;;;;;;12748628;27;19919;-83
2022/06/16 19:29:12;;;;;;;;;;;;;;;;;;12747392;27;19918;-82
2022/06/16 19:35:14;;;;;;;;;;;;;;;;;;12729430;27;19924;-81
2022/06/16 19:41:15;;;;;;;;;;;;;;;;;;12747418;27;19912;-82
2022/06/16 19:53:37;;;;;;;;;;;;;;;;;;12747829;28;19918;-82
2022/06/16 19:59:49;;;;;;;;;;;;;;;;;;12715493;28;19938;-82
2022/06/16 20:05:51;;;;;;;;;;;;;;;;;;12731584;28;19922;-83
2022/06/16 20:11:52;;;;;;;;;;;;;;;;;;12736248;27;19915;-81
2022/06/16 20:17:54;;;;;;;;;;;;;;;;;;12784960;27;19911;-82
2022/06/16 20:23:56;;;;;;;;;;;;;;;;;;12773852;27;19911;-84
2022/06/16 20:29:57;;;;;;;;;;;;;;;;;;12763232;27;20364;-83
2022/06/16 20:35:58;;;;;;;;;;;;;;;;;;12742785;27;19934;-83
2022/06/16 20:42:12;;;;;;;;;;;;;;;;;;12741661;27;19912;-84
2022/06/16 20:48:14;;;;;;;;;;;;;;;;;;12759663;27;19912;-83
2022/06/16 20:54:15;;;;;;;;;;;;;;;;;;12761882;27;19911;-83
2022/06/16 21:06:37;;;;;;;;;;;;;;;;;;12745774;27;20279;-81
2022/06/16 21:12:38;;;;;;;;;;;;;;;;;;12762704;27;19915;-83
2022/06/16 21:18:46;;;;;;;;;;;;;;;;;;12744156;27;19927;-83
2022/06/16 21:24:47;;;;;;;;;;;;;;;;;;12724351;27;19930;-84
2022/06/16 21:30:49;;;;;;;;;;;;;;;;;;12757453;27;20329;-80
2022/06/16 21:36:50;;;;;;;;;;;;;;;;;;12696978;28;19923;-80
2022/06/16 21:42:51;;;;;;;;;;;;;;;;;;12683280;28;19912;-80
2022/06/16 21:48:53;;;;;;;;;;;;;;;;;;12686862;28;19912;-81
2022/06/16 21:54:55;;;;;;;;;;;;;;;;;;12688720;28;19919;-80
2022/06/16 22:00:56;;;;;;;;;;;;;;;;;;12691985;28;19911;-79
2022/06/16 22:06:58;;;;;;;;;;;;;;;;;;12740281;28;19916;-80
2022/06/16 22:13:00;;;;;;;;;;;;;;;;;;12672328;28;19912;-80
2022/06/16 22:19:02;;;;;;;;;;;;;;;;;;12681682;28;19926;-81
2022/06/16 22:25:04;;;;;;;;;;;;;;;;;;12699879;28;19919;-81
2022/06/16 22:31:05;;;;;;;;;;;;;;;;;;12699813;28;19900;-81
2022/06/16 22:37:07;;;;;;;;;;;;;;;;;;12745012;27;19923;-80
2022/06/16 22:43:10;;;;;;;;;;;;;;;;;;12750331;27;19916;-80
2022/06/16 22:49:12;;;;;;;;;;;;;;;;;;12732052;27;19919;-80
2022/06/16 23:01:34;;;;;;;;;;;;;;;;;;12750118;27;19911;-81
2022/06/16 23:07:36;;;;;;;;;;;;;;;;;;12750590;27;19915;-80
2022/06/16 23:13:37;;;;;;;;;;;;;;;;;;12749054;27;19918;-85
2022/06/16 23:19:39;;;;;;;;;;;;;;;;;;12713672;27;19930;-81
2022/06/16 23:25:41;;;;;;;;;;;;;;;;;;12729979;27;20274;-80
2022/06/16 23:31:42;;;;;;;;;;;;;;;;;;12751019;27;19996;-79
2022/06/16 23:37:43;;;;;;;;;;;;;;;;;;12749336;27;19924;-80
2022/06/16 23:43:45;;;;;;;;;;;;;;;;;;12748419;27;20287;-80
2022/06/16 23:49:48;;;;;;;;;;;;;;;;;;12777575;27;19926;-80
2022/06/16 23:55:50;;;;;;;;;;;;;;;;;;12740239;28;19924;-80
